createdAt,value
2017-05-23T00:00:32.563Z,86.16
2017-05-23T00:01:32.555Z,85.87
2017-05-23T00:02:32.542Z,85.49
2017-05-23T00:03:32.212Z,84.91
2017-05-23T00:04:32.527Z,85.39
2017-05-23T00:05:32.492Z,85.2
2017-05-23T00:06:32.485Z,85.49
2017-05-23T00:07:32.173Z,84.81
2017-05-23T00:08:32.456Z,85.1
2017-05-23T00:09:32.134Z,85.74
2017-05-23T00:10:32.422Z,85.44
2017-05-23T00:11:32.108Z,85.83
2017-05-23T00:12:32.391Z,85.93
2017-05-23T00:13:32.383Z,85.83
2017-05-23T00:14:32.077Z,85.83
2017-05-23T00:15:32.362Z,85.93
2017-05-23T00:16:32.344Z,86.51
2017-05-23T00:17:32.023Z,86.69
2017-05-23T00:18:32.308Z,86.79
2017-05-23T00:19:32.294Z,86.6
2017-05-23T00:20:32.282Z,86.6
2017-05-23T00:21:32.265Z,86.31
2017-05-23T00:22:32.255Z,86.79
2017-05-23T00:23:32.241Z,86.51
2017-05-23T00:24:31.918Z,86.41
2017-05-23T00:25:32.211Z,86.22
2017-05-23T00:26:32.192Z,86.6
2017-05-23T00:27:32.184Z,86.02
2017-05-23T00:28:31.856Z,86.22
2017-05-23T00:29:32.157Z,86.31
2017-05-23T00:30:32.135Z,86.51
2017-05-23T00:31:32.121Z,86.6
2017-05-23T00:32:32.112Z,86.31
2017-05-23T00:33:32.094Z,86.51
2017-05-23T00:34:31.786Z,86.22
2017-05-23T00:35:32.062Z,86.79
2017-05-23T00:36:32.119Z,86.69
2017-05-23T00:37:31.733Z,86.79
2017-05-23T00:38:32.062Z,87.08
2017-05-23T00:39:32.011Z,87.27
2017-05-23T00:40:32.068Z,86.99
2017-05-23T00:41:31.970Z,86.69
2017-05-23T00:42:32.060Z,86.79
2017-05-23T00:43:31.643Z,87.27
2017-05-23T00:44:31.639Z,86.79
2017-05-23T00:45:31.921Z,87.56
2017-05-23T00:46:31.955Z,87.37
2017-05-23T00:47:31.594Z,87.37
2017-05-23T00:48:31.622Z,87.46
2017-05-23T00:49:31.554Z,87.27
2017-05-23T00:50:31.854Z,87.95
2017-05-23T00:51:31.891Z,87.85
2017-05-23T00:52:31.882Z,88.14
2017-05-23T00:53:31.803Z,88.24
2017-05-23T00:54:31.794Z,87.95
2017-05-23T00:55:31.490Z,88.04
2017-05-23T00:56:31.764Z,88.14
2017-05-23T00:57:31.747Z,88.53
2017-05-23T00:58:31.733Z,88.43
2017-05-23T00:59:31.413Z,88.14
2017-05-23T01:00:31.702Z,88.53
2017-05-23T01:01:31.695Z,88.81
2017-05-23T01:02:31.673Z,88.43
2017-05-23T01:03:31.737Z,88.81
2017-05-23T01:04:31.651Z,88.81
2017-05-23T01:05:31.681Z,88.81
2017-05-23T01:06:31.317Z,89.2
2017-05-23T01:07:31.292Z,89.2
2017-05-23T01:08:31.582Z,89.01
2017-05-23T01:09:31.571Z,89.01
2017-05-23T01:10:31.262Z,89.54
2017-05-23T01:11:31.558Z,89.39
2017-05-23T01:12:31.522Z,89.64
2017-05-23T01:13:31.517Z,89.54
2017-05-23T01:14:31.202Z,89.68
2017-05-23T01:15:31.183Z,90.12
2017-05-23T01:16:31.163Z,90.21
2017-05-23T01:17:31.151Z,90.59
2017-05-23T01:18:31.455Z,90.21
2017-05-23T01:19:31.433Z,89.92
2017-05-23T01:20:31.418Z,90.12
2017-05-23T01:21:31.087Z,90.12
2017-05-23T01:22:31.074Z,89.73
2017-05-23T01:23:31.364Z,89.92
2017-05-23T01:24:31.352Z,90.31
2017-05-23T01:25:31.345Z,90.31
2017-05-23T01:26:31.330Z,90.21
2017-05-23T01:27:31.306Z,90.31
2017-05-23T01:28:31.289Z,90.12
2017-05-23T01:29:31.282Z,90.69
2017-05-23T01:30:31.262Z,90.59
2017-05-23T01:31:31.263Z,90.79
2017-05-23T01:32:30.940Z,90.79
2017-05-23T01:33:30.919Z,90.79
2017-05-23T01:34:31.209Z,90.94
2017-05-23T01:35:31.189Z,90.94
2017-05-23T01:36:31.176Z,91.13
2017-05-23T01:37:31.166Z,91.52
2017-05-23T01:38:30.832Z,91.08
2017-05-23T01:39:31.129Z,91.46
2017-05-23T01:40:31.122Z,91.56
2017-05-23T01:41:30.858Z,91.9
2017-05-23T01:42:31.084Z,91.9
2017-05-23T01:43:30.871Z,91.52
2017-05-23T01:44:31.056Z,91.8
2017-05-23T01:45:31.044Z,91.71
2017-05-23T01:46:30.720Z,92.38
2017-05-23T01:47:31.011Z,92.09
2017-05-23T01:48:30.683Z,92.57
2017-05-23T01:49:30.983Z,92.76
2017-05-23T01:50:30.965Z,92.76
2017-05-23T01:51:30.647Z,92.76
2017-05-23T01:52:30.943Z,92.96
2017-05-23T01:53:30.930Z,92.86
2017-05-23T01:54:30.916Z,93.15
2017-05-23T01:55:30.890Z,93.15
2017-05-23T01:56:30.887Z,93.24
2017-05-23T01:57:30.561Z,93.24
2017-05-23T01:58:30.853Z,93.24
2017-05-23T01:59:30.522Z,93.63
2017-05-23T02:00:30.822Z,93.24
2017-05-23T02:01:30.817Z,93.53
2017-05-23T02:02:30.782Z,93.24
2017-05-23T02:03:30.773Z,93.53
2017-05-23T02:04:30.443Z,93.44
2017-05-23T02:05:30.434Z,93.24
2017-05-23T02:06:30.723Z,93.15
2017-05-23T02:07:30.408Z,93.63
2017-05-23T02:08:30.694Z,93.82
2017-05-23T02:09:30.372Z,93.05
2017-05-23T02:10:30.677Z,93.63
2017-05-23T02:11:30.644Z,93.44
2017-05-23T02:12:30.639Z,93.44
2017-05-23T02:13:30.622Z,93.53
2017-05-23T02:14:30.606Z,93.91
2017-05-23T02:15:30.592Z,93.34
2017-05-23T02:16:30.572Z,93.91
2017-05-23T02:17:30.252Z,93.91
2017-05-23T02:18:30.554Z,93.05
2017-05-23T02:19:30.225Z,93.05
2017-05-23T02:20:30.513Z,93.82
2017-05-23T02:21:30.504Z,93.77
2017-05-23T02:22:30.484Z,93.73
2017-05-23T02:23:30.474Z,94.11
2017-05-23T02:24:30.452Z,93.82
2017-05-23T02:25:30.433Z,94.11
2017-05-23T02:26:30.481Z,94.01
2017-05-23T02:27:30.099Z,94.35
2017-05-23T02:28:30.394Z,94.01
2017-05-23T02:29:30.084Z,94.45
2017-05-23T02:30:30.356Z,94.49
2017-05-23T02:31:30.344Z,94.68
2017-05-23T02:32:30.327Z,94.01
2017-05-23T02:33:30.313Z,94.26
2017-05-23T02:34:30.000Z,94.45
2017-05-23T02:35:29.973Z,94.21
2017-05-23T02:36:29.963Z,94.68
2017-05-23T02:37:30.269Z,94.88
2017-05-23T02:38:30.243Z,94.54
2017-05-23T02:39:30.232Z,94.06
2017-05-23T02:40:29.911Z,94.93
2017-05-23T02:41:29.941Z,95.31
2017-05-23T02:42:30.184Z,95.4
2017-05-23T02:43:30.184Z,95.12
2017-05-23T02:44:30.144Z,95.03
2017-05-23T02:45:30.148Z,95.21
2017-05-23T02:46:29.818Z,94.93
2017-05-23T02:47:30.152Z,95.21
2017-05-23T02:48:30.084Z,94.93
2017-05-23T02:49:30.123Z,95.31
2017-05-23T02:50:30.064Z,95.12
2017-05-23T02:51:30.052Z,95.31
2017-05-23T02:52:29.732Z,95.03
2017-05-23T02:53:30.003Z,95.03
2017-05-23T02:54:29.990Z,94.73
2017-05-23T02:55:29.980Z,95.21
2017-05-23T02:56:29.963Z,95.4
2017-05-23T02:57:29.993Z,95.31
2017-05-23T02:58:29.626Z,95.03
2017-05-23T02:59:29.912Z,95.31
2017-05-23T03:00:29.597Z,95.31
2017-05-23T03:01:29.945Z,95.31
2017-05-23T03:02:29.885Z,95.31
2017-05-23T03:03:29.862Z,95.5
2017-05-23T03:04:29.536Z,95.21
2017-05-23T03:05:29.825Z,95.7
2017-05-23T03:06:29.503Z,96.08
2017-05-23T03:07:29.788Z,96.85
2017-05-23T03:08:29.792Z,96.66
2017-05-23T03:09:29.775Z,97.04
2017-05-23T03:10:29.441Z,96.7
2017-05-23T03:11:29.426Z,96.89
2017-05-23T03:12:29.713Z,97.28
2017-05-23T03:13:29.701Z,96.99
2017-05-23T03:14:29.372Z,97.38
2017-05-23T03:15:29.379Z,97.47
2017-05-23T03:16:29.655Z,96.89
2017-05-23T03:17:29.635Z,96.51
2017-05-23T03:18:29.634Z,96.7
2017-05-23T03:19:29.307Z,97.09
2017-05-23T03:20:29.593Z,97.47
2017-05-23T03:21:29.572Z,97.28
2017-05-23T03:22:29.265Z,97.38
2017-05-23T03:23:29.553Z,96.99
2017-05-23T03:24:29.225Z,97.66
2017-05-23T03:25:29.513Z,97.47
2017-05-23T03:26:29.503Z,98.24
2017-05-23T03:27:29.494Z,98.43
2017-05-23T03:28:29.164Z,97.81
2017-05-23T03:29:29.463Z,98.05
2017-05-23T03:30:29.188Z,98.43
2017-05-23T03:31:29.423Z,98.53
2017-05-23T03:32:29.406Z,98.43
2017-05-23T03:33:29.392Z,98.43
2017-05-23T03:34:29.083Z,98.63
2017-05-23T03:35:29.359Z,98.43
2017-05-23T03:36:29.043Z,98.05
2017-05-23T03:37:29.333Z,97.96
2017-05-23T03:38:29.316Z,98.34
2017-05-23T03:39:29.289Z,98.14
2017-05-23T03:40:29.289Z,97.47
2017-05-23T03:41:29.262Z,97.28
2017-05-23T03:42:29.032Z,98.05
2017-05-23T03:43:29.235Z,97.57
2017-05-23T03:44:29.227Z,97.57
2017-05-23T03:45:29.203Z,97.38
2017-05-23T03:46:28.874Z,97.47
2017-05-23T03:47:29.177Z,97.38
2017-05-23T03:48:29.153Z,97.28
2017-05-23T03:49:28.834Z,97.09
2017-05-23T03:50:28.824Z,97.19
2017-05-23T03:51:29.109Z,97.38
2017-05-23T03:52:29.103Z,97.57
2017-05-23T03:53:29.095Z,97.57
2017-05-23T03:54:29.124Z,97.66
2017-05-23T03:55:29.051Z,97.57
2017-05-23T03:56:29.035Z,97.57
2017-05-23T03:57:29.011Z,97.86
2017-05-23T03:58:28.993Z,98.05
2017-05-23T03:59:28.987Z,97.86
2017-05-23T04:00:28.673Z,97.96
2017-05-23T04:01:28.946Z,98.14
2017-05-23T04:02:28.933Z,97.57
2017-05-23T04:03:28.613Z,98.05
2017-05-23T04:04:28.915Z,97.86
2017-05-23T04:05:28.889Z,97.76
2017-05-23T04:06:28.875Z,98.05
2017-05-23T04:07:28.875Z,97.81
2017-05-23T04:08:28.843Z,98.19
2017-05-23T04:09:28.521Z,98.1
2017-05-23T04:10:28.820Z,97.81
2017-05-23T04:11:28.794Z,98.38
2017-05-23T04:12:28.783Z,98.48
2017-05-23T04:13:28.454Z,98.38
2017-05-23T04:14:28.745Z,98.77
2017-05-23T04:15:28.730Z,99.15
2017-05-23T04:16:28.714Z,99.34
2017-05-23T04:17:28.704Z,99.73
2017-05-23T04:18:28.382Z,99.54
2017-05-23T04:19:28.674Z,99.58
2017-05-23T04:20:28.345Z,99.99
2017-05-23T04:21:28.630Z,99.99
2017-05-23T04:22:28.306Z,99.99
2017-05-23T04:23:28.603Z,99.99
2017-05-23T04:24:28.586Z,99.99
2017-05-23T04:25:28.263Z,99.99
2017-05-23T04:26:28.553Z,99.99
2017-05-23T04:27:28.534Z,99.99
2017-05-23T04:28:28.607Z,99.99
2017-05-23T04:29:28.207Z,99.99
2017-05-23T04:30:28.493Z,99.99
2017-05-23T04:31:28.477Z,99.99
2017-05-23T04:32:28.151Z,99.99
2017-05-23T04:33:28.144Z,99.99
2017-05-23T04:34:28.429Z,99.99
2017-05-23T04:35:28.093Z,99.99
2017-05-23T04:36:28.087Z,99.99
2017-05-23T04:37:28.064Z,99.99
2017-05-23T04:38:28.365Z,99.99
2017-05-23T04:39:28.032Z,99.99
2017-05-23T04:40:28.029Z,99.99
2017-05-23T04:41:28.307Z,99.99
2017-05-23T04:42:28.305Z,99.99
2017-05-23T04:43:28.287Z,99.99
2017-05-23T04:44:28.330Z,99.99
2017-05-23T04:45:28.254Z,99.99
2017-05-23T04:46:28.235Z,99.99
2017-05-23T04:47:28.216Z,99.99
2017-05-23T04:48:27.967Z,99.99
2017-05-23T04:49:28.167Z,99.99
2017-05-23T04:50:28.187Z,99.99
2017-05-23T04:51:27.836Z,99.99
2017-05-23T04:52:28.277Z,99.99
2017-05-23T04:53:28.114Z,99.99
2017-05-23T04:54:28.193Z,99.99
2017-05-23T04:55:28.075Z,99.99
2017-05-23T04:56:27.864Z,99.99
2017-05-23T04:57:27.738Z,99.99
2017-05-23T04:58:28.038Z,99.99
2017-05-23T04:59:27.712Z,99.99
2017-05-23T05:00:28.047Z,99.99
2017-05-23T05:01:27.678Z,99.99
2017-05-23T05:02:27.667Z,99.99
2017-05-23T05:03:27.945Z,99.99
2017-05-23T05:04:27.975Z,99.99
2017-05-23T05:05:27.937Z,99.99
2017-05-23T05:06:27.915Z,99.99
2017-05-23T05:07:27.896Z,99.99
2017-05-23T05:08:27.916Z,99.99
2017-05-23T05:09:27.856Z,99.99
2017-05-23T05:10:27.881Z,99.99
2017-05-23T05:11:27.514Z,99.99
2017-05-23T05:12:27.545Z,99.99
2017-05-23T05:13:27.785Z,99.99
2017-05-23T05:14:27.463Z,99.99
2017-05-23T05:15:27.752Z,99.99
2017-05-23T05:16:27.776Z,99.99
2017-05-23T05:17:27.777Z,99.99
2017-05-23T05:18:27.714Z,99.99
2017-05-23T05:19:27.700Z,99.99
2017-05-23T05:20:27.427Z,99.99
2017-05-23T05:21:27.735Z,99.99
2017-05-23T05:22:27.684Z,99.99
2017-05-23T05:23:27.676Z,99.99
2017-05-23T05:24:27.617Z,99.73
2017-05-23T05:25:27.625Z,99.25
2017-05-23T05:26:27.575Z,99.58
2017-05-23T05:27:27.584Z,99.78
2017-05-23T05:28:27.545Z,99.58
2017-05-23T05:29:27.529Z,99.78
2017-05-23T05:30:27.505Z,99.4
2017-05-23T05:31:27.497Z,99.58
2017-05-23T05:32:27.174Z,99.87
2017-05-23T05:33:27.465Z,99.2
2017-05-23T05:34:27.448Z,99.2
2017-05-23T05:35:27.511Z,99.2
2017-05-23T05:36:27.425Z,99.87
2017-05-23T05:37:27.398Z,98.63
2017-05-23T05:38:27.395Z,98.53
2017-05-23T05:39:27.377Z,98.05
2017-05-23T05:40:27.357Z,98.63
2017-05-23T05:41:27.096Z,98.63
2017-05-23T05:42:27.324Z,98.68
2017-05-23T05:43:27.326Z,98.1
2017-05-23T05:44:26.984Z,97.04
2017-05-23T05:45:27.273Z,96.56
2017-05-23T05:46:27.273Z,95.6
2017-05-23T05:47:27.247Z,94.93
2017-05-23T05:48:26.916Z,95.03
2017-05-23T05:49:27.215Z,93.91
2017-05-23T05:50:27.196Z,93.77
2017-05-23T05:51:27.183Z,94.01
2017-05-23T05:52:26.865Z,93.34
2017-05-23T05:53:26.859Z,93.15
2017-05-23T05:54:27.144Z,93.05
2017-05-23T05:55:26.810Z,92.86
2017-05-23T05:56:27.115Z,92.86
2017-05-23T05:57:27.083Z,92.86
2017-05-23T05:58:27.063Z,92.86
2017-05-23T05:59:27.062Z,92.47
2017-05-23T06:00:27.044Z,92.33
2017-05-23T06:01:26.723Z,91.94
2017-05-23T06:02:27.011Z,91.94
2017-05-23T06:03:26.685Z,92.29
2017-05-23T06:04:26.683Z,92.29
2017-05-23T06:05:26.667Z,91.85
2017-05-23T06:06:26.951Z,92.52
2017-05-23T06:07:26.944Z,92.47
2017-05-23T06:08:26.925Z,91.85
2017-05-23T06:09:26.902Z,91.85
2017-05-23T06:10:26.591Z,91.85
2017-05-23T06:11:26.893Z,91.56
2017-05-23T06:12:26.882Z,91.36
2017-05-23T06:13:26.865Z,91.27
2017-05-23T06:14:26.842Z,91.03
2017-05-23T06:15:26.843Z,90.83
2017-05-23T06:16:26.798Z,90.93
2017-05-23T06:17:26.792Z,91.13
2017-05-23T06:18:26.774Z,90.83
2017-05-23T06:19:26.772Z,90.64
2017-05-23T06:20:26.762Z,90.83
2017-05-23T06:21:26.736Z,91.13
2017-05-23T06:22:26.724Z,90.73
2017-05-23T06:23:26.705Z,90.45
2017-05-23T06:24:26.394Z,90.26
2017-05-23T06:25:26.675Z,90.4
2017-05-23T06:26:26.667Z,90.5
2017-05-23T06:27:26.661Z,90.69
2017-05-23T06:28:26.633Z,90.3
2017-05-23T06:29:26.622Z,90.2
2017-05-23T06:30:26.604Z,90.11
2017-05-23T06:31:26.283Z,89.72
2017-05-23T06:32:26.588Z,90.3
2017-05-23T06:33:26.575Z,90.01
2017-05-23T06:34:26.253Z,90.3
2017-05-23T06:35:26.536Z,90.25
2017-05-23T06:36:26.525Z,89.77
2017-05-23T06:37:26.519Z,89.86
2017-05-23T06:38:26.498Z,89.39
2017-05-23T06:39:26.496Z,88.51
2017-05-23T06:40:26.473Z,88.9
2017-05-23T06:41:26.453Z,89.19
2017-05-23T06:42:26.136Z,89
2017-05-23T06:43:26.427Z,88.13
2017-05-23T06:44:26.418Z,88.17
2017-05-23T06:45:26.406Z,88.32
2017-05-23T06:46:26.086Z,88.17
2017-05-23T06:47:26.375Z,87.88
2017-05-23T06:48:26.370Z,88.27
2017-05-23T06:49:26.032Z,87.21
2017-05-23T06:50:26.035Z,87.3
2017-05-23T06:51:26.016Z,87.4
2017-05-23T06:52:26.315Z,87.3
2017-05-23T06:53:26.324Z,86.82
2017-05-23T06:54:26.275Z,87.35
2017-05-23T06:55:26.381Z,87.35
2017-05-23T06:56:26.254Z,86.87
2017-05-23T06:57:26.245Z,86.48
2017-05-23T06:58:26.220Z,86.68
2017-05-23T06:59:25.998Z,86.48
2017-05-23T07:00:25.892Z,86.73
2017-05-23T07:01:26.232Z,86.68
2017-05-23T07:02:26.172Z,86.39
2017-05-23T07:03:26.222Z,86.29
2017-05-23T07:04:26.157Z,86.68
2017-05-23T07:05:26.203Z,86.19
2017-05-23T07:06:26.120Z,86.43
2017-05-23T07:07:26.119Z,85.94
2017-05-23T07:08:26.104Z,85.37
2017-05-23T07:09:25.789Z,85.08
2017-05-23T07:10:26.072Z,85.37
2017-05-23T07:11:26.062Z,85.85
2017-05-23T07:12:26.042Z,85.17
2017-05-23T07:13:26.058Z,85.27
2017-05-23T07:14:26.024Z,84.98
2017-05-23T07:15:25.773Z,84.89
2017-05-23T07:16:25.698Z,85.46
2017-05-23T07:17:25.987Z,85.27
2017-05-23T07:18:25.979Z,85.6
2017-05-23T07:19:25.964Z,85.6
2017-05-23T07:20:25.648Z,86.08
2017-05-23T07:21:25.652Z,85.41
2017-05-23T07:22:25.626Z,86.66
2017-05-23T07:23:25.918Z,85.36
2017-05-23T07:24:25.901Z,84.48
2017-05-23T07:25:25.892Z,84.2
2017-05-23T07:26:25.883Z,84
2017-05-23T07:27:25.883Z,84.64
2017-05-23T07:28:25.852Z,85.12
2017-05-23T07:29:25.845Z,85.22
2017-05-23T07:30:25.833Z,85.6
2017-05-23T07:31:25.820Z,85.7
2017-05-23T07:32:25.809Z,85.8
2017-05-23T07:33:25.802Z,85.89
2017-05-23T07:34:25.484Z,86.08
2017-05-23T07:35:25.767Z,86.13
2017-05-23T07:36:25.764Z,85.31
2017-05-23T07:37:25.751Z,84.88
2017-05-23T07:38:25.482Z,84.3
2017-05-23T07:39:25.732Z,84
2017-05-23T07:40:25.723Z,84.1
2017-05-23T07:41:25.401Z,84.33
2017-05-23T07:42:25.696Z,84.53
2017-05-23T07:43:25.682Z,83.75
2017-05-23T07:44:25.673Z,83.37
2017-05-23T07:45:25.661Z,83.27
2017-05-23T07:46:25.643Z,83.99
2017-05-23T07:47:25.631Z,83.22
2017-05-23T07:48:25.327Z,82.64
2017-05-23T07:49:25.612Z,81.48
2017-05-23T07:50:25.602Z,81.48
2017-05-23T07:51:25.285Z,81.77
2017-05-23T07:52:25.705Z,81.96
2017-05-23T07:53:25.646Z,81.87
2017-05-23T07:54:25.386Z,80.94
2017-05-23T07:55:25.551Z,80.55
2017-05-23T07:56:25.599Z,80.36
2017-05-23T07:57:25.211Z,81.09
2017-05-23T07:58:25.521Z,80.36
2017-05-23T07:59:25.502Z,80.99
2017-05-23T08:00:25.251Z,80.94
2017-05-23T08:01:25.534Z,79.97
2017-05-23T08:02:25.540Z,80.55
2017-05-23T08:03:25.550Z,81.04
2017-05-23T08:04:25.443Z,79.97
2017-05-23T08:05:25.435Z,79.97
2017-05-23T08:06:25.121Z,79.33
2017-05-23T08:07:25.481Z,78.75
2017-05-23T08:08:25.414Z,78.94
2017-05-23T08:09:25.090Z,79.04
2017-05-23T08:10:25.381Z,78.85
2017-05-23T08:11:25.382Z,79.43
2017-05-23T08:12:25.363Z,78.94
2017-05-23T08:13:25.374Z,78.31
2017-05-23T08:14:25.343Z,78.5
2017-05-23T08:15:25.334Z,78.41
2017-05-23T08:16:25.325Z,78.34
2017-05-23T08:17:25.313Z,77.09
2017-05-23T08:18:25.014Z,76.6
2017-05-23T08:19:25.304Z,76.21
2017-05-23T08:20:25.283Z,76.41
2017-05-23T08:21:25.285Z,76.12
2017-05-23T08:22:25.271Z,75.67
2017-05-23T08:23:25.271Z,75.87
2017-05-23T08:24:25.239Z,75.23
2017-05-23T08:25:25.232Z,74.74
2017-05-23T08:26:25.219Z,73.58
2017-05-23T08:27:25.209Z,73.77
2017-05-23T08:28:25.222Z,74.6
2017-05-23T08:29:24.884Z,74.51
2017-05-23T08:30:25.199Z,74.74
2017-05-23T08:31:25.178Z,74.64
2017-05-23T08:32:25.163Z,74.84
2017-05-23T08:33:25.165Z,74.64
2017-05-23T08:34:25.155Z,74.84
2017-05-23T08:35:25.153Z,74.16
2017-05-23T08:36:24.823Z,73.71
2017-05-23T08:37:24.818Z,74.29
2017-05-23T08:38:25.116Z,73.52
2017-05-23T08:39:24.798Z,71.51
2017-05-23T08:40:25.094Z,71.42
2017-05-23T08:41:24.778Z,71.42
2017-05-23T08:42:25.083Z,71.61
2017-05-23T08:43:25.072Z,71.51
2017-05-23T08:44:25.074Z,72.09
2017-05-23T08:45:25.051Z,71.32
2017-05-23T08:46:24.742Z,70.97
2017-05-23T08:47:25.042Z,70.48
2017-05-23T08:48:25.133Z,70.12
2017-05-23T08:49:24.719Z,69.35
2017-05-23T08:50:25.031Z,69.93
2017-05-23T08:51:25.012Z,69.64
2017-05-23T08:52:25.013Z,69.45
2017-05-23T08:53:25.021Z,67.73
2017-05-23T08:54:24.991Z,66.96
2017-05-23T08:55:24.988Z,67.31
2017-05-23T08:56:24.992Z,68.05
2017-05-23T08:57:24.971Z,67.21
2017-05-23T08:58:24.967Z,67.5
2017-05-23T08:59:24.652Z,67.89
2017-05-23T09:00:24.651Z,67.11
2017-05-23T09:01:24.641Z,67.11
2017-05-23T09:02:24.962Z,67.41
2017-05-23T09:03:24.941Z,67.8
2017-05-23T09:04:24.938Z,68.18
2017-05-23T09:05:24.919Z,67.8
2017-05-23T09:06:24.932Z,67.99
2017-05-23T09:07:24.614Z,69.02
2017-05-23T09:08:24.904Z,69.15
2017-05-23T09:09:24.610Z,66.76
2017-05-23T09:10:24.903Z,66.79
2017-05-23T09:11:24.891Z,65.92
2017-05-23T09:12:24.894Z,65.53
2017-05-23T09:13:24.884Z,65.33
2017-05-23T09:14:24.571Z,65.63
2017-05-23T09:15:24.571Z,66.27
2017-05-23T09:16:24.561Z,65.89
2017-05-23T09:17:24.881Z,66.31
2017-05-23T09:18:24.872Z,65.37
2017-05-23T09:19:24.553Z,65.72
2017-05-23T09:20:24.852Z,66.11
2017-05-23T09:21:24.847Z,65.75
2017-05-23T09:22:24.852Z,65.92
2017-05-23T09:23:24.861Z,66.6
2017-05-23T09:24:24.540Z,66.05
2017-05-23T09:25:24.591Z,65.43
2017-05-23T09:26:24.843Z,65.43
2017-05-23T09:27:24.874Z,65.27
2017-05-23T09:28:24.822Z,64.72
2017-05-23T09:29:24.833Z,64.23
2017-05-23T09:30:24.814Z,64.62
2017-05-23T09:31:24.822Z,63.78
2017-05-23T09:32:24.506Z,64.04
2017-05-23T09:33:24.815Z,64.13
2017-05-23T09:34:24.811Z,64.23
2017-05-23T09:35:24.794Z,64.26
2017-05-23T09:36:24.813Z,64.07
2017-05-23T09:37:24.791Z,63.58
2017-05-23T09:38:24.791Z,63.58
2017-05-23T09:39:24.492Z,64.45
2017-05-23T09:40:24.775Z,64.62
2017-05-23T09:41:24.782Z,63.87
2017-05-23T09:42:24.772Z,63.29
2017-05-23T09:43:24.793Z,63.58
2017-05-23T09:44:24.482Z,64.84
2017-05-23T09:45:24.461Z,64.07
2017-05-23T09:46:24.462Z,62.73
2017-05-23T09:47:24.451Z,62.76
2017-05-23T09:48:24.769Z,61.99
2017-05-23T09:49:24.753Z,61.89
2017-05-23T09:50:24.458Z,62.76
2017-05-23T09:51:24.443Z,62.51
2017-05-23T09:52:24.433Z,62.99
2017-05-23T09:53:24.751Z,62.99
2017-05-23T09:54:24.754Z,62.73
2017-05-23T09:55:24.478Z,63.26
2017-05-23T09:56:24.732Z,63.94
2017-05-23T09:57:24.721Z,63.75
2017-05-23T09:58:24.725Z,63.9
2017-05-23T09:59:24.425Z,64.2
2017-05-23T10:00:24.405Z,64.69
2017-05-23T10:01:24.405Z,63.75
2017-05-23T10:02:24.705Z,64.04
2017-05-23T10:03:24.408Z,63.78
2017-05-23T10:04:24.713Z,63.68
2017-05-23T10:05:24.380Z,63.39
2017-05-23T10:06:24.694Z,63.55
2017-05-23T10:07:24.686Z,63.75
2017-05-23T10:08:24.392Z,64.72
2017-05-23T10:09:24.672Z,64.23
2017-05-23T10:10:24.699Z,63.84
2017-05-23T10:11:24.665Z,63.48
2017-05-23T10:12:24.660Z,63.97
2017-05-23T10:13:24.663Z,64.23
2017-05-23T10:14:24.664Z,64.49
2017-05-23T10:15:24.643Z,65.27
2017-05-23T10:16:24.638Z,65.75
2017-05-23T10:17:24.334Z,64.88
2017-05-23T10:18:24.333Z,65.79
2017-05-23T10:19:24.620Z,64.26
2017-05-23T10:20:24.310Z,63.58
2017-05-23T10:21:24.615Z,63.39
2017-05-23T10:22:24.603Z,63.58
2017-05-23T10:23:24.601Z,63.58
2017-05-23T10:24:24.291Z,63.68
2017-05-23T10:25:24.591Z,63.55
2017-05-23T10:26:24.590Z,64.1
2017-05-23T10:27:24.282Z,64.59
2017-05-23T10:28:24.572Z,65.56
2017-05-23T10:29:24.574Z,64.1
2017-05-23T10:30:24.261Z,63.94
2017-05-23T10:31:24.248Z,63.39
2017-05-23T10:32:24.552Z,63.02
2017-05-23T10:33:24.241Z,63.12
2017-05-23T10:34:24.540Z,64.2
2017-05-23T10:35:24.543Z,63.84
2017-05-23T10:36:24.518Z,63.61
2017-05-23T10:37:24.532Z,63.97
2017-05-23T10:38:24.208Z,64.23
2017-05-23T10:39:24.198Z,64.72
2017-05-23T10:40:24.503Z,65.04
2017-05-23T10:41:24.510Z,66.05
2017-05-23T10:42:24.501Z,64.52
2017-05-23T10:43:24.481Z,64.59
2017-05-23T10:44:24.480Z,64.39
2017-05-23T10:45:24.462Z,65.85
2017-05-23T10:46:24.157Z,65.04
2017-05-23T10:47:24.460Z,65.33
2017-05-23T10:48:24.442Z,65.63
2017-05-23T10:49:24.443Z,66.69
2017-05-23T10:50:24.124Z,66.11
2017-05-23T10:51:24.424Z,66.4
2017-05-23T10:52:24.410Z,65.56
2017-05-23T10:53:24.410Z,65.08
2017-05-23T10:54:24.097Z,64.39
2017-05-23T10:55:24.080Z,64.78
2017-05-23T10:56:24.079Z,64.59
2017-05-23T10:57:24.380Z,64.98
2017-05-23T10:58:24.381Z,63.75
2017-05-23T10:59:24.057Z,64.69
2017-05-23T11:00:24.366Z,64.49
2017-05-23T11:01:24.370Z,65.43
2017-05-23T11:02:24.338Z,65.27
2017-05-23T11:03:24.037Z,66.08
2017-05-23T11:04:24.340Z,65.04
2017-05-23T11:05:24.423Z,63.32
2017-05-23T11:06:24.312Z,63.97
2017-05-23T11:07:24.309Z,64.84
2017-05-23T11:08:24.311Z,64.26
2017-05-23T11:09:24.329Z,65.82
2017-05-23T11:10:23.982Z,65.14
2017-05-23T11:11:24.292Z,64.45
2017-05-23T11:12:23.971Z,64.65
2017-05-23T11:13:24.311Z,64.94
2017-05-23T11:14:24.272Z,64.17
2017-05-23T11:15:24.257Z,63.87
2017-05-23T11:16:23.932Z,63.87
2017-05-23T11:17:24.350Z,63.75
2017-05-23T11:18:24.237Z,63.58
2017-05-23T11:19:24.232Z,63.29
2017-05-23T11:20:23.912Z,63.78
2017-05-23T11:21:24.211Z,63.39
2017-05-23T11:22:24.203Z,63.32
2017-05-23T11:23:24.205Z,62.66
2017-05-23T11:24:24.192Z,62.15
2017-05-23T11:25:24.190Z,62.93
2017-05-23T11:26:24.176Z,63.29
2017-05-23T11:27:24.175Z,63.97
2017-05-23T11:28:24.178Z,64.13
2017-05-23T11:29:24.166Z,62.96
2017-05-23T11:30:24.146Z,63.71
2017-05-23T11:31:24.144Z,64.1
2017-05-23T11:32:23.830Z,64.1
2017-05-23T11:33:24.134Z,63.75
2017-05-23T11:34:24.142Z,62.8
2017-05-23T11:35:24.122Z,62.87
2017-05-23T11:36:24.112Z,62.93
2017-05-23T11:37:24.110Z,63.81
2017-05-23T11:38:24.092Z,64.1
2017-05-23T11:39:23.800Z,63.39
2017-05-23T11:40:24.072Z,64.46
2017-05-23T11:41:24.083Z,64.17
2017-05-23T11:42:24.149Z,64.07
2017-05-23T11:43:24.074Z,63.52
2017-05-23T11:44:24.073Z,61.96
2017-05-23T11:45:23.732Z,62.29
2017-05-23T11:46:24.091Z,62.57
2017-05-23T11:47:24.040Z,61.11
2017-05-23T11:48:24.030Z,60.24
2017-05-23T11:49:24.011Z,60.05
2017-05-23T11:50:24.012Z,59.56
2017-05-23T11:51:24.047Z,59.88
2017-05-23T11:52:24.093Z,59.98
2017-05-23T11:53:23.981Z,59
2017-05-23T11:54:23.979Z,58.45
2017-05-23T11:55:24.020Z,58.94
2017-05-23T11:56:24.010Z,60
2017-05-23T11:57:23.961Z,59.35
2017-05-23T11:58:23.997Z,58.58
2017-05-23T11:59:23.635Z,58.38
2017-05-23T12:00:23.630Z,59.23
2017-05-23T12:01:23.935Z,57.96
2017-05-23T12:02:23.660Z,57.37
2017-05-23T12:03:23.912Z,57.67
2017-05-23T12:04:23.604Z,57.76
2017-05-23T12:05:23.919Z,56.7
2017-05-23T12:06:23.891Z,56.21
2017-05-23T12:07:23.576Z,56.3
2017-05-23T12:08:23.890Z,56.3
2017-05-23T12:09:23.868Z,56.62
2017-05-23T12:10:23.873Z,55.97
2017-05-23T12:11:23.869Z,55.48
2017-05-23T12:12:23.850Z,55.02
2017-05-23T12:13:23.838Z,53.27
2017-05-23T12:14:23.840Z,52.36
2017-05-23T12:15:23.836Z,53.7
2017-05-23T12:16:23.829Z,53.11
2017-05-23T12:17:23.822Z,53.5
2017-05-23T12:18:23.820Z,54.09
2017-05-23T12:19:23.811Z,54.85
2017-05-23T12:20:23.795Z,54.85
2017-05-23T12:21:23.799Z,55.33
2017-05-23T12:22:23.481Z,55.13
2017-05-23T12:23:23.781Z,55.62
2017-05-23T12:24:23.458Z,55.96
2017-05-23T12:25:23.550Z,56.32
2017-05-23T12:26:23.455Z,56.12
2017-05-23T12:27:23.550Z,56.61
2017-05-23T12:28:23.749Z,56.71
2017-05-23T12:29:23.488Z,56.61
2017-05-23T12:30:23.791Z,56.81
2017-05-23T12:31:23.480Z,56.9
2017-05-23T12:32:23.716Z,57.36
2017-05-23T12:33:23.401Z,57.39
2017-05-23T12:34:23.745Z,57.42
2017-05-23T12:35:23.683Z,57.49
2017-05-23T12:36:23.691Z,58
2017-05-23T12:37:23.681Z,57.12
2017-05-23T12:38:23.672Z,58.2
2017-05-23T12:39:23.680Z,58.1
2017-05-23T12:40:23.670Z,59.3
2017-05-23T12:41:23.651Z,57.74
2017-05-23T12:42:23.333Z,58.03
2017-05-23T12:43:23.633Z,57.74
2017-05-23T12:44:23.623Z,56.3
2017-05-23T12:45:23.611Z,56.3
2017-05-23T12:46:23.610Z,56.3
2017-05-23T12:47:23.604Z,56.37
2017-05-23T12:48:23.614Z,56.67
2017-05-23T12:49:23.592Z,57.25
2017-05-23T12:50:23.583Z,57.54
2017-05-23T12:51:23.263Z,57.35
2017-05-23T12:52:23.570Z,58.51
2017-05-23T12:53:23.250Z,58.15
2017-05-23T12:54:23.551Z,57.57
2017-05-23T12:55:23.239Z,57.67